Bellingham International Airport
KBLI : now visible

Airfield :











YOU CAN JOIN US ON...

 
LOGIN :

Register | Disclaimer

   EN    FR    IT 

 









Legend :    VFR   Marginal VFR   IFR   Intensive IFR   Very Intensive IFR
Visi :
Ceiling :
>= 8 km
>= 3000ft
5 to 8 km
1000 to 3000 ft
1500m to 5 km
500 to 1000 ft
800 to 1500m
200 to 500 ft
< 800m
< 200 ft
Symbols :   Thunderstorms  Fog  Heavy snow  Heavy precipitations  Wind > 20 kt






- Airport Elevation : 170 ft
- IATA code : BLI


KBLI - Bellingham International

CURRENT METAR :
  • 291653Z 20009KT 10SM CLR 16/11 A2996 RMK AO2 SLP150 T01610106

EXPIRED METARs :
  • 291553Z 19006KT 10SM CLR 16/11 A2996 RMK AO2 SLP151 T01610106
  • 291453Z 18007KT 10SM CLR 15/11 A2996 RMK AO2 SLP152 T01500106 53012

TAF KBLI
Valid from the 29 at 12:00 until the 30 at 12:00 UTC


291120Z 2912/3012 VRB05KT P6SM BKN250
FM292000 27007KT P6SM BKN250
FM300300 22005KT P6SM BKN250
KZSE FIR / North America



MET'MAP, your aeronautical weather chart ! - Copyright ORBIFLY December 2007 - Disclaimer

ORBIFLY MET'MAP TEAM :

Programming & Development : Alexandra Zaïnal
Concept & original design : Baudouin d'Aumeries
Assistance for programming : Marc-Olivier Méhu
Technical & hardware support : Manuel Goepfert

Contact : metmap@orbifly.com




SOURCES & CREDITS :

   NOAA       Earth
Advisory